Latest Coastal Weather Observations for St Lawrence

IDQ60701

Issued at 10:01 pm EST Tuesday 9 February 2016 (issued every 10 minutes, with the page automatically refreshed every 10 minutes)

About coastal observations | Map of coastal stations | Coastal observations for QLD | Marine services | Other Formats
Station Details ID: 033210 Name: ST LAWRENCE Lat: -22.35 Lon: 149.52 Height: 9.19 m
Data from the previous 72 hours. | See also: Recent months at St Lawrence
Date/Time
EST
Temp

°C
Wind Pressure Rain
since 9am
mm
Weather Cloud Vis
km
Sea
Height
m
Swell
Dir
 
Speed
knots
Gust
knots
hPa Trend Height
m
Period
s
Dir
09/10:00pm 24.5 S 2 4 1011.9 - 0.0 - - - - - - -
09/09:30pm 25.5 SE 3 5 1012.0 - 0.0 - - - - - - -
09/09:00pm 25.4 ESE 3 5 1011.9 - 0.0 - - - - - - -
09/08:30pm 25.9 ESE 4 6 1011.6 - 0.0 - - - - - - -
09/08:00pm 25.9 ESE 3 7 1011.5 - 0.0 - - - - - - -
09/07:30pm 26.4 CALM 0 0 1011.3 - 0.0 - - - - - - -
09/07:00pm 26.8 E 2 5 1011.1 - 0.0 - - - - - - -
09/06:30pm 27.1 E 4 7 1010.7 - 0.0 - - - - - - -
09/06:00pm 27.2 E 5 10 1010.3 - 0.0 - - - - - - -
09/05:30pm 27.4 E 7 12 1009.9 - 0.0 - - - - - - -
09/05:00pm 28.1 ESE 11 18 1009.6 - 0.0 - - - - - - -
09/04:30pm 27.3 E 9 18 1009.4 - 0.0 - - - - - - -
09/04:00pm 29.6 ESE 8 14 1009.2 - 0.0 - - - - - - -
09/03:30pm 29.6 ESE 8 12 1009.1 - 0.0 - - - - - - -
09/03:00pm 29.6 SE 12 20 1009.2 - 0.0 - - - - - - -
09/02:30pm 30.7 ESE 9 14 1009.3 - 0.0 - - - - - - -
09/02:00pm 29.8 SE 9 15 1009.8 - 0.0 - - - - - - -
09/01:30pm 30.8 SE 9 17 1010.0 - 0.0 - - - - - - -
09/01:00pm 30.1 SSE 7 12 1010.3 - 0.0 - - - - - - -
09/12:30pm 30.2 SSE 7 13 1010.8 - 0.0 - - - - - - -
09/12:00pm 29.5 SE 8 13 1011.1 - 0.0 - - - - - - -
09/11:30am 29.6 ESE 6 9 1011.3 - 0.0 - - - - - - -
09/11:00am 29.2 SSE 8 11 1011.7 - 0.0 - - - - - - -
09/10:30am 27.9 SSE 7 11 1012.0 - 0.0 - - - - - - -
09/10:00am 27.8 S 6 9 1012.2 - 0.0 - - - - - - -
09/09:30am 27.3 SSE 6 10 1012.6 - 0.0 - - - - - - -
09/09:00am 26.7 SSE 7 11 1012.4 - 0.2 - - - - - - -
09/08:30am 26.1 SSE 7 10 1012.4 - 0.2 - - - - - - -
09/08:00am 25.3 S 7 11 1012.2 - 0.2 - - - - - - -
09/07:30am 24.3 S 6 10 1012.0 - 0.2 - - - - - - -
09/07:00am 23.8 S 6 8 1011.8 - 0.2 - - - - - - -
09/06:30am 23.5 S 5 8 1011.6 - 0.2 - - - - - - -
09/06:00am 22.2 S 3 5 1011.0 - 0.2 - - - - - - -
09/05:30am 22.3 S 3 4 1010.5 - 0.2 - - - - - - -
09/05:00am 22.3 S 3 4 1010.4 - 0.2 - - - - - - -
09/04:30am 22.6 SSW 3 4 1010.2 - 0.2 - - - - - - -
09/04:00am 22.8 S 1 3 1010.2 - 0.2 - - - - - - -
09/03:30am 23.4 S 3 4 1010.1 - 0.2 - - - - - - -
09/03:00am 23.6 SSW 3 4 1010.1 - 0.2 - - - - - - -
09/02:30am 23.7 SSE 1 3 1010.1 - 0.2 - - - - - - -
09/02:00am 24.3 S 2 4 1010.4 - 0.2 - - - - - - -
09/01:30am 24.7 SE 3 4 1010.6 - 0.2 - - - - - - -
09/01:00am 24.6 S 3 4 1011.0 - 0.2 - - - - - - -
09/12:30am 24.7 SW 2 3 1011.3 - 0.2 - - - - - - -
09/12:00am 25.0 CALM 0 3 1011.6 - 0.2 - - - - - - -
 
Date/Time
EST
Temp

°C
Wind Pressure Rain
since 9am
mm
Weather Cloud Vis
km
Sea
Height
m
Swell
Dir
 
Speed
knots
Gust
knots
hPa Trend Height
m
Period
s
Dir
08/11:30pm 25.2 SSE 1 3 1012.0 - 0.2 - - - - - - -
08/11:00pm 25.4 SSE 3 4 1011.9 - 0.2 - - - - - - -
08/10:30pm 25.7 SE 4 6 1012.1 - 0.2 - - - - - - -
08/10:00pm 25.8 SE 4 5 1011.9 - 0.2 - - - - - - -
08/09:30pm 26.2 ESE 4 6 1011.9 - 0.2 - - - - - - -
08/09:00pm 26.4 ESE 5 8 1011.7 - 0.2 - - - - - - -
08/08:30pm 26.6 ESE 4 7 1011.5 - 0.2 - - - - - - -
08/08:00pm 26.9 E 5 8 1011.3 - 0.2 - - - - - - -
08/07:30pm 27.1 E 5 8 1010.8 - 0.2 - - - - - - -
08/07:00pm 27.5 E 5 8 1010.4 - 0.2 - - - - - - -
08/06:30pm 28.1 E 4 6 1010.4 - 0.2 - - - - - - -
08/06:00pm 28.5 ESE 4 6 1010.1 - 0.2 - - - - - - -
08/05:30pm 29.1 ESE 7 11 1009.6 - 0.2 - - - - - - -
08/05:00pm 29.1 ESE 7 12 1009.4 - 0.2 - - - - - - -
08/04:30pm 29.5 ESE 6 11 1009.1 - 0.2 - - - - - - -
08/04:00pm 29.5 ESE 7 12 1008.9 - 0.2 - - - - - - -
08/03:30pm 29.7 ESE 7 11 1008.8 - 0.2 - - - - - - -
08/03:00pm 29.9 SE 8 11 1008.9 - 0.2 - - - - - - -
08/02:30pm 30.0 SE 8 13 1009.2 - 0.2 - - - - - - -
08/02:00pm 29.0 SE 6 9 1009.6 - 0.2 - - - - - - -
08/01:30pm 29.1 SE 8 12 1010.0 - 0.2 - - - - - - -
08/01:00pm 28.8 SE 7 11 1010.5 - 0.2 - - - - - - -
08/12:30pm 27.8 SSE 6 9 1011.0 - 0.2 - - - - - - -
08/12:00pm 27.5 SE 5 7 1011.4 - 0.2 - - - - - - -
08/11:30am 27.1 SSE 6 9 1011.5 - 0.2 - - - - - - -
08/11:00am 27.0 SSE 6 9 1011.7 - 0.2 - - - - - - -
08/10:30am 27.1 SSE 6 9 1011.9 - 0.2 - - - - - - -
08/10:00am 26.7 SSE 8 12 1012.0 - 0.2 - - - - - - -
08/09:30am 26.2 SSE 5 9 1012.0 - 0.2 - - - - - - -
08/09:00am 25.6 S 7 13 1011.9 - 14.6 - - - - - - -
08/08:30am 25.0 S 7 11 1011.9 - 14.6 - - - - - - -
08/08:00am 24.7 S 7 11 1011.9 - 14.6 - - - - - - -
08/07:30am 24.3 S 6 10 1011.5 - 14.6 - - - - - - -
08/07:00am 24.1 S 7 11 1011.5 - 14.6 - - - - - - -
08/06:30am 24.0 S 6 9 1011.4 - 14.6 - - - - - - -
08/06:00am 24.1 S 5 9 1011.2 - 14.6 - - - - - - -
08/05:30am 24.1 S 5 6 1010.8 - 14.6 - - - - - - -
08/05:00am 24.1 SSW 4 6 1010.5 - 14.6 - - - - - - -
08/04:30am 24.1 SW 3 5 1010.3 - 14.6 - - - - - - -
08/04:00am 24.1 SSW 3 5 1010.3 - 14.6 - - - - - - -
08/03:30am 23.9 S 4 5 1010.1 - 14.6 - - - - - - -
08/03:00am 23.9 SSW 3 5 1010.0 - 14.4 - - - - - - -
08/02:30am 23.8 SSW 4 5 1009.8 - 14.4 - - - - - - -
08/02:00am 23.8 S 3 4 1010.2 - 14.4 - - - - - - -
08/01:30am 23.7 CALM 0 0 1010.4 - 14.4 - - - - - - -
08/01:00am 23.8 S 3 4 1010.7 - 13.6 - - - - - - -
08/12:30am 23.9 S 5 7 1010.9 - 12.4 - - - - - - -
08/12:00am 23.8 S 6 7 1011.1 - 12.4 - - - - - - -
 
Date/Time
EST
Temp

°C
Wind Pressure Rain
since 9am
mm
Weather Cloud Vis
km
Sea
Height
m
Swell
Dir
 
Speed
knots
Gust
knots
hPa Trend Height
m
Period
s
Dir
07/11:30pm 24.1 SSE 5 8 1011.3 - 12.4 - - - - - - -
07/11:00pm 24.2 S 6 9 1011.5 - 12.4 - - - - - - -
07/10:30pm 24.3 S 6 8 1011.6 - 12.2 - - - - - - -
07/10:00pm 24.4 S 5 7 1011.7 - 12.0 - - - - - - -
07/09:30pm 24.7 S 4 7 1011.5 - 11.8 - - - - - - -
07/09:00pm 24.7 SSE 5 8 1011.1 - 10.8 Rain - - - - - -
07/08:30pm 24.8 S 5 7 1011.0 - 9.2 - - - - - - -
07/08:00pm 24.8 SSE 4 7 1010.4 - 8.8 - - - - - - -
07/07:30pm 24.8 SSE 5 8 1009.9 - 7.6 - - - - - - -
07/07:00pm 24.9 S 5 7 1009.6 - 5.2 - - - - - - -
07/06:30pm 25.3 S 5 7 1009.1 - 3.4 - - - - - - -
07/06:00pm 25.7 SSE 7 11 1008.6 - 1.4 - - - - - - -
07/05:30pm 25.9 SSE 5 9 1008.1 - 1.4 - - - - - - -
07/05:00pm 25.8 SSE 6 10 1007.7 - 1.4 - - - - - - -
07/04:30pm 26.0 S 7 9 1007.7 - 1.2 - - - - - - -
07/04:00pm 26.5 SSW 5 8 1007.6 - 1.2 - - - - - - -
07/03:30pm 26.8 SE 3 6 1007.5 - 1.0 - - - - - - -
07/03:00pm 26.5 SE 3 6 1007.7 - 1.0 Recent precip. - - - - - -
07/02:30pm 26.8 SE 3 5 1007.8 - 0.8 - - - - - - -
07/02:00pm 27.2 S 5 7 1007.9 - 0.2 - - - - - - -
07/01:30pm 27.4 SSE 5 8 1008.0 - 0.2 - - - - - - -
07/01:00pm 26.7 ESE 5 7 1008.4 - 0.2 - - - - - - -
07/12:30pm 27.3 SSE 4 7 1008.5 - 0.2 - - - - - - -
07/12:00pm 26.8 SSE 5 8 1009.0 - 0.2 - - - - - - -
07/11:30am 27.2 SSE 6 10 1009.1 - 0.2 - - - - - - -
07/11:00am 26.9 SE 5 8 1009.4 - 0.2 - - - - - - -
07/10:30am 26.7 SE 7 9 1009.3 - 0.0 - - - - - - -
07/10:00am 26.2 SSE 7 11 1009.5 - 0.0 - - - - - - -
07/09:30am 25.5 S 5 7 1009.3 - 0.0 - - - - - - -
07/09:00am 24.8 S 6 10 1009.2 - 12.6 - - - - - - -
07/08:30am 24.8 S 6 9 1008.8 - 12.6 - - - - - - -
07/08:00am 24.4 S 7 10 1008.6 - 12.6 - - - - - - -
07/07:30am 24.2 S 7 10 1008.3 - 12.6 - - - - - - -
07/07:00am 24.0 S 7 12 1008.1 - 12.4 - - - - - - -
07/06:30am 24.0 S 7 12 1007.7 - 12.4 - - - - - - -
07/06:00am 24.2 S 5 8 1007.5 - 12.2 Recent precip. - - - - - -
07/05:30am 24.3 S 6 8 1007.2 - 12.0 - - - - - - -
07/05:00am 24.4 S 5 8 1006.8 - 12.0 - - - - - - -
07/04:30am 24.4 S 5 7 1006.5 - 12.0 - - - - - - -
07/04:00am 24.6 S 4 7 1006.4 - 11.8 - - - - - - -
07/03:30am 24.7 S 3 4 1006.4 - 11.8 - - - - - - -
07/03:00am 24.6 S 3 5 1006.4 - 11.6 - - - - - - -
07/02:30am 24.4 SSW 4 7 1006.1 - 11.6 - - - - - - -
07/02:00am 24.4 S 2 4 1006.1 - 11.6 - - - - - - -
07/01:30am 24.4 S 4 6 1005.8 - 11.2 - - - - - - -
07/01:00am 24.5 SSE 4 5 1006.9 - 9.2 - - - - - - -
07/12:30am 24.7 S 3 4 1007.5 - 7.2 - - - - - - -
07/12:00am 24.7 CALM 0 0 1007.8 - 6.2 Recent precip. - - - - - -
 
Date/Time
EST
Temp

°C
Wind Pressure Rain
since 9am
mm
Weather Cloud Vis
km
Sea
Height
m
Swell
Dir
 
Speed
knots
Gust
knots
hPa Trend Height
m
Period
s
Dir
06/11:30pm 24.8 CALM 0 0 1007.9 - 5.4 - - - - - - -
06/11:00pm 24.9 SSW 2 4 1008.3 - 4.4 - - - - - - -
06/10:30pm 24.9 SSE 4 6 1008.2 - 4.0 - - - - - - -

Other Formats:

Comma delimited format used in spreadsheet applications
http://www.bom.gov.au/fwo/IDQ60701/IDQ60701.95369.axf

JavaScript Object Notation format (JSON) in row-major order
http://www.bom.gov.au/fwo/IDQ60701/IDQ60701.95369.json